createdAt,value
2019-02-27T00:00:45.799Z,6.60
2019-02-27T00:03:16.691Z,6.60
2019-02-27T00:05:47.244Z,6.60
2019-02-27T00:08:17.727Z,6.60
2019-02-27T00:10:48.174Z,6.60
2019-02-27T00:13:18.681Z,6.60
2019-02-27T00:15:49.135Z,6.60
2019-02-27T00:18:23.709Z,6.60
2019-02-27T00:20:52.316Z,6.60
2019-02-27T00:23:24.150Z,6.50
2019-02-27T00:25:55.157Z,6.50
2019-02-27T00:28:25.645Z,6.50
2019-02-27T00:30:56.097Z,6.40
2019-02-27T00:33:28.617Z,6.40
2019-02-27T00:35:58.777Z,6.30
2019-02-27T00:38:29.251Z,6.20
2019-02-27T00:41:00.945Z,6.10
2019-02-27T00:43:31.408Z,6.10
2019-02-27T00:46:01.893Z,6.10
2019-02-27T00:48:32.338Z,6.20
2019-02-27T00:51:02.833Z,6.30
2019-02-27T00:53:33.292Z,6.30
2019-02-27T00:56:03.795Z,6.30
2019-02-27T00:58:34.294Z,6.40
2019-02-27T01:01:05.120Z,6.50
2019-02-27T01:03:37.298Z,6.40
2019-02-27T01:06:07.956Z,6.40
2019-02-27T01:08:38.414Z,6.40
2019-02-27T01:11:08.901Z,6.40
2019-02-27T01:13:42.555Z,6.40
2019-02-27T01:16:17.012Z,6.40
2019-02-27T01:18:46.826Z,6.40
2019-02-27T01:21:19.954Z,6.40
2019-02-27T01:23:51.179Z,6.40
2019-02-27T01:26:23.133Z,6.40
2019-02-27T01:28:53.613Z,6.40
2019-02-27T01:31:24.510Z,6.30
2019-02-27T01:33:55.130Z,6.40
2019-02-27T01:36:25.579Z,6.40
2019-02-27T01:38:56.066Z,6.40
2019-02-27T01:41:26.549Z,6.40
2019-02-27T01:43:57.004Z,6.40
2019-02-27T01:46:27.771Z,6.30
2019-02-27T01:48:58.867Z,6.30
2019-02-27T01:51:29.316Z,6.20
2019-02-27T01:54:04.268Z,6.20
2019-02-27T01:56:34.818Z,6.10
2019-02-27T01:59:06.846Z,6.10
2019-02-27T02:01:37.326Z,6.00
2019-02-27T02:04:07.813Z,6.00
2019-02-27T02:06:38.928Z,5.90
2019-02-27T02:09:31.108Z,5.90
2019-02-27T02:12:11.934Z,5.90
2019-02-27T02:15:05.248Z,5.90
2019-02-27T02:18:11.915Z,5.90
2019-02-27T02:21:10.214Z,5.90
2019-02-27T02:24:14.304Z,5.70
2019-02-27T02:27:08.234Z,5.60
2019-02-27T02:30:20.848Z,5.50
2019-02-27T02:33:16.448Z,5.60
2019-02-27T02:35:57.282Z,5.60
2019-02-27T02:38:32.479Z,5.50
2019-02-27T02:41:34.688Z,5.40
2019-02-27T02:44:30.762Z,5.30
2019-02-27T02:47:31.600Z,5.20
2019-02-27T02:50:27.201Z,5.10
2019-02-27T02:53:17.128Z,5.00
2019-02-27T02:56:14.895Z,5.10
2019-02-27T02:59:26.581Z,5.00
2019-02-27T03:02:13.354Z,5.00
2019-02-27T03:05:26.363Z,4.90
2019-02-27T03:08:07.168Z,4.80
2019-02-27T03:11:01.620Z,4.70
2019-02-27T03:13:50.464Z,4.60
2019-02-27T03:16:34.512Z,4.60
2019-02-27T03:19:12.715Z,4.50
2019-02-27T03:22:24.944Z,4.50
2019-02-27T03:25:40.871Z,4.40
2019-02-27T03:28:40.371Z,4.40
2019-02-27T03:31:39.113Z,4.40
2019-02-27T03:34:27.763Z,4.30
2019-02-27T03:37:20.995Z,4.20
2019-02-27T03:40:17.372Z,4.30
2019-02-27T03:42:57.855Z,4.20
2019-02-27T03:45:55.355Z,4.20
2019-02-27T03:48:41.954Z,4.20
2019-02-27T03:51:48.564Z,4.00
2019-02-27T03:54:41.729Z,3.90
2019-02-27T03:57:22.602Z,3.80
2019-02-27T04:00:24.594Z,3.80
2019-02-27T04:02:59.748Z,3.80
2019-02-27T04:06:01.818Z,3.80
2019-02-27T04:08:54.071Z,3.70
2019-02-27T04:11:24.866Z,3.70
2019-02-27T04:14:03.058Z,3.60
2019-02-27T04:16:29.405Z,3.60
2019-02-27T04:19:04.632Z,3.50
2019-02-27T04:21:36.509Z,3.50
2019-02-27T04:24:08.498Z,3.50
2019-02-27T04:26:42.013Z,3.50
2019-02-27T04:29:12.823Z,3.40
2019-02-27T04:31:44.430Z,3.40
2019-02-27T04:34:14.915Z,3.40
2019-02-27T04:36:47.213Z,3.30
2019-02-27T04:39:18.242Z,3.20
2019-02-27T04:41:49.535Z,3.10
2019-02-27T04:44:22.428Z,3.10
2019-02-27T04:46:55.083Z,3.10
2019-02-27T04:49:25.105Z,3.10
2019-02-27T04:51:55.868Z,3.10
2019-02-27T04:54:26.354Z,3.10
2019-02-27T04:56:58.129Z,3.10
2019-02-27T04:59:30.079Z,3.00
2019-02-27T05:02:23.174Z,3.00
2019-02-27T05:04:55.187Z,3.10
2019-02-27T05:07:26.305Z,3.10
2019-02-27T05:09:56.784Z,3.10
2019-02-27T05:12:27.231Z,3.10
2019-02-27T05:15:00.829Z,3.10
2019-02-27T05:17:34.091Z,3.10
2019-02-27T05:20:11.590Z,3.00
2019-02-27T05:22:40.121Z,3.00
2019-02-27T05:25:12.155Z,3.00
2019-02-27T05:27:42.792Z,3.00
2019-02-27T05:30:14.857Z,3.00
2019-02-27T05:32:45.334Z,3.00
2019-02-27T05:35:16.564Z,3.00
2019-02-27T05:37:47.724Z,3.00
2019-02-27T05:40:18.209Z,3.10
2019-02-27T05:42:50.022Z,3.00
2019-02-27T05:45:22.013Z,3.10
2019-02-27T05:47:52.517Z,3.10
2019-02-27T05:50:22.947Z,3.20
2019-02-27T05:52:53.426Z,3.20
2019-02-27T05:55:23.870Z,3.30
2019-02-27T05:57:55.722Z,3.40
2019-02-27T06:00:26.263Z,3.40
2019-02-27T06:02:57.969Z,3.40
2019-02-27T06:05:28.425Z,3.50
2019-02-27T06:08:02.067Z,3.70
2019-02-27T06:10:31.182Z,3.70
2019-02-27T06:13:01.680Z,3.90
2019-02-27T06:15:32.222Z,3.90
2019-02-27T06:18:02.714Z,4.10
2019-02-27T06:20:33.241Z,4.40
2019-02-27T06:23:04.409Z,4.50
2019-02-27T06:25:59.167Z,4.70
2019-02-27T06:28:27.453Z,4.80
2019-02-27T06:30:57.944Z,4.90
2019-02-27T06:33:29.066Z,4.90
2019-02-27T06:35:59.554Z,5.00
2019-02-27T06:38:31.577Z,5.10
2019-02-27T06:41:02.033Z,5.10
2019-02-27T06:43:32.519Z,5.20
2019-02-27T06:46:03.085Z,5.20
2019-02-27T06:48:33.568Z,5.40
2019-02-27T06:51:04.017Z,5.60
2019-02-27T06:53:34.496Z,5.70
2019-02-27T06:56:06.003Z,5.80
2019-02-27T06:58:36.472Z,5.90
2019-02-27T07:01:09.124Z,6.00
2019-02-27T07:03:39.098Z,6.10
2019-02-27T07:06:09.560Z,6.20
2019-02-27T07:08:40.725Z,6.30
2019-02-27T07:11:11.388Z,6.30
2019-02-27T07:13:42.517Z,6.40
2019-02-27T07:16:14.792Z,6.40
2019-02-27T07:18:46.831Z,6.50
2019-02-27T07:21:19.517Z,6.60
2019-02-27T07:23:50.010Z,6.70
2019-02-27T07:26:20.463Z,6.70
2019-02-27T07:28:52.483Z,6.70
2019-02-27T07:31:23.457Z,6.80
2019-02-27T07:33:54.009Z,6.90
2019-02-27T07:36:24.482Z,7.00
2019-02-27T07:38:57.516Z,7.00
2019-02-27T07:41:27.796Z,7.00
2019-02-27T07:43:58.248Z,7.00
2019-02-27T07:46:29.650Z,7.00
2019-02-27T07:49:01.525Z,7.10
2019-02-27T07:51:32.238Z,7.20
2019-02-27T07:54:04.017Z,7.20
2019-02-27T07:56:35.397Z,7.20
2019-02-27T07:59:05.903Z,7.30
2019-02-27T08:01:43.469Z,7.30
2019-02-27T08:04:09.299Z,7.30
2019-02-27T08:06:41.428Z,7.30
2019-02-27T08:09:17.412Z,7.40
2019-02-27T08:11:47.988Z,7.40
2019-02-27T08:14:18.472Z,7.40
2019-02-27T08:16:48.934Z,7.40
2019-02-27T08:19:19.432Z,7.50
2019-02-27T08:21:49.882Z,7.60
2019-02-27T08:24:20.366Z,7.60
2019-02-27T08:26:52.453Z,7.70
2019-02-27T08:29:22.927Z,7.70
2019-02-27T08:31:53.425Z,7.80
2019-02-27T08:34:23.874Z,7.90
2019-02-27T08:36:54.414Z,8.00
2019-02-27T08:39:26.225Z,8.10
2019-02-27T08:41:56.679Z,8.10
2019-02-27T08:44:27.207Z,8.10
2019-02-27T08:46:58.327Z,8.20
2019-02-27T08:49:28.822Z,8.20
2019-02-27T08:52:00.561Z,8.20
2019-02-27T08:54:33.027Z,8.30
2019-02-27T08:57:03.732Z,8.40
2019-02-27T08:59:36.988Z,8.50
2019-02-27T09:02:07.580Z,8.60
2019-02-27T09:04:38.709Z,8.60
2019-02-27T09:07:09.253Z,8.70
2019-02-27T09:09:42.496Z,8.90
2019-02-27T09:12:14.006Z,9.00
2019-02-27T09:14:46.086Z,9.10
2019-02-27T09:17:18.227Z,9.10
2019-02-27T09:19:51.408Z,9.10
2019-02-27T09:22:21.895Z,9.20
2019-02-27T09:24:52.394Z,9.30
2019-02-27T09:27:22.908Z,9.30
2019-02-27T09:29:55.342Z,9.40
2019-02-27T09:32:27.342Z,9.50
2019-02-27T09:34:59.516Z,9.60
2019-02-27T09:37:30.078Z,9.70
2019-02-27T09:40:07.235Z,9.80
2019-02-27T09:42:37.707Z,9.90
2019-02-27T09:45:18.698Z,10.00
2019-02-27T09:47:49.235Z,10.10
2019-02-27T09:50:47.809Z,10.10
2019-02-27T09:53:15.655Z,10.10
2019-02-27T09:55:46.146Z,10.20
2019-02-27T09:58:19.597Z,10.40
2019-02-27T10:01:11.919Z,10.50
2019-02-27T10:03:44.906Z,10.60
2019-02-27T10:06:17.810Z,11.00
2019-02-27T10:08:48.544Z,11.30
2019-02-27T10:11:22.691Z,11.50
2019-02-27T10:13:53.860Z,11.50
2019-02-27T10:16:35.395Z,11.70
2019-02-27T10:19:08.381Z,12.00
2019-02-27T10:21:38.926Z,12.60
2019-02-27T10:24:09.458Z,12.90
2019-02-27T10:27:03.227Z,13.00
2019-02-27T10:29:35.330Z,12.80
2019-02-27T10:32:05.826Z,12.80
2019-02-27T10:34:36.362Z,12.70
2019-02-27T10:37:12.846Z,12.80
2019-02-27T10:39:44.564Z,12.60
2019-02-27T10:42:14.773Z,12.70
2019-02-27T10:44:45.944Z,12.70
2019-02-27T10:47:16.441Z,12.80
2019-02-27T10:49:48.535Z,12.60
2019-02-27T10:52:23.924Z,12.40
2019-02-27T10:54:51.930Z,12.30
2019-02-27T10:57:22.543Z,12.40
2019-02-27T10:59:53.021Z,12.30
2019-02-27T11:02:25.346Z,12.40
2019-02-27T11:04:55.806Z,12.50
2019-02-27T11:07:26.432Z,12.50
2019-02-27T11:09:56.962Z,12.70
2019-02-27T11:12:29.538Z,13.00
2019-02-27T11:15:00.890Z,13.20
2019-02-27T11:17:31.388Z,13.20
2019-02-27T11:20:03.168Z,13.40
2019-02-27T11:22:34.631Z,13.90
2019-02-27T11:25:10.509Z,14.30
2019-02-27T11:27:41.045Z,14.30
2019-02-27T11:30:19.095Z,14.40
2019-02-27T11:32:49.557Z,14.60
2019-02-27T11:35:22.135Z,14.90
2019-02-27T11:37:52.246Z,15.10
2019-02-27T11:40:25.599Z,15.40
2019-02-27T11:42:56.153Z,15.20
2019-02-27T11:45:26.800Z,15.20
2019-02-27T11:47:57.263Z,15.40
2019-02-27T11:50:27.828Z,15.80
2019-02-27T11:53:02.769Z,16.60
2019-02-27T11:55:32.192Z,16.90
2019-02-27T11:58:05.415Z,16.50
2019-02-27T12:00:36.292Z,16.30
2019-02-27T12:03:11.185Z,16.10
2019-02-27T12:05:41.200Z,16.20
2019-02-27T12:08:11.693Z,15.70
2019-02-27T12:10:42.224Z,15.30
2019-02-27T12:13:12.792Z,15.20
2019-02-27T12:15:44.589Z,15.10
2019-02-27T12:18:15.177Z,15.00
2019-02-27T12:20:45.779Z,15.20
2019-02-27T12:23:16.274Z,15.20
2019-02-27T12:25:46.728Z,14.90
2019-02-27T12:28:18.116Z,14.70
2019-02-27T12:30:48.950Z,14.50
2019-02-27T12:33:19.437Z,14.40
2019-02-27T12:35:49.967Z,14.50
2019-02-27T12:38:20.458Z,14.70
2019-02-27T12:40:50.921Z,15.00
2019-02-27T12:43:21.486Z,15.40
2019-02-27T12:45:51.969Z,15.40
2019-02-27T12:48:22.440Z,15.40
2019-02-27T12:50:52.925Z,15.70
2019-02-27T12:53:23.413Z,15.50
2019-02-27T12:55:54.700Z,15.10
2019-02-27T12:58:25.423Z,14.90
2019-02-27T13:00:58.029Z,14.40
2019-02-27T13:03:28.495Z,14.10
2019-02-27T13:06:00.931Z,13.90
2019-02-27T13:08:31.139Z,13.70
2019-02-27T13:11:01.645Z,13.90
2019-02-27T13:13:34.744Z,14.00
2019-02-27T13:16:05.441Z,13.90
2019-02-27T13:18:35.959Z,14.20
2019-02-27T13:21:09.185Z,14.60
2019-02-27T13:23:42.190Z,15.00
2019-02-27T13:26:11.836Z,15.10
2019-02-27T13:28:45.979Z,15.20
2019-02-27T13:31:16.319Z,15.30
2019-02-27T13:33:47.404Z,15.30
2019-02-27T13:36:17.920Z,15.30
2019-02-27T13:38:49.535Z,15.20
2019-02-27T13:41:20.580Z,15.20
2019-02-27T13:43:51.074Z,15.10
2019-02-27T13:46:22.711Z,15.00
2019-02-27T13:48:54.984Z,14.70
2019-02-27T13:51:25.472Z,14.70
2019-02-27T13:54:00.317Z,14.50
2019-02-27T13:56:29.674Z,14.30
2019-02-27T13:59:00.167Z,14.20
2019-02-27T14:01:32.154Z,14.10
2019-02-27T14:04:03.586Z,14.00
2019-02-27T14:06:34.951Z,13.80
2019-02-27T14:09:09.764Z,13.70
2019-02-27T14:11:40.292Z,13.60
2019-02-27T14:14:15.059Z,13.60
2019-02-27T14:16:49.265Z,13.40
2019-02-27T14:19:21.345Z,13.40
2019-02-27T14:21:53.312Z,13.40
2019-02-27T14:24:24.476Z,13.40
2019-02-27T14:26:54.953Z,13.30
2019-02-27T14:29:26.094Z,13.20
2019-02-27T14:31:57.622Z,13.20
2019-02-27T14:34:28.122Z,13.20
2019-02-27T14:36:58.571Z,13.20
2019-02-27T14:39:30.447Z,13.10
2019-02-27T14:42:01.329Z,13.00
2019-02-27T14:44:32.412Z,13.10
2019-02-27T14:47:02.936Z,13.00
2019-02-27T14:49:34.987Z,13.00
2019-02-27T14:52:05.748Z,12.90
2019-02-27T14:54:36.229Z,12.90
2019-02-27T14:57:08.259Z,12.90
2019-02-27T14:59:40.272Z,12.80
2019-02-27T15:02:16.229Z,12.60
2019-02-27T15:04:46.711Z,12.50
2019-02-27T15:07:18.711Z,12.50
2019-02-27T15:09:49.196Z,12.50
2019-02-27T15:12:20.482Z,12.50
2019-02-27T15:14:51.063Z,12.50
2019-02-27T15:17:21.530Z,12.50
2019-02-27T15:19:52.089Z,12.50
2019-02-27T15:22:22.560Z,12.60
2019-02-27T15:24:54.591Z,12.70
2019-02-27T15:27:25.697Z,12.80
2019-02-27T15:29:56.293Z,12.90
2019-02-27T15:32:29.442Z,13.20
2019-02-27T15:35:01.902Z,13.70
2019-02-27T15:37:37.114Z,13.80
2019-02-27T15:40:11.113Z,13.60
2019-02-27T15:42:42.700Z,13.30
2019-02-27T15:45:23.375Z,13.00
2019-02-27T15:47:53.962Z,12.50
2019-02-27T15:50:35.782Z,12.10
2019-02-27T15:53:06.430Z,11.70
2019-02-27T15:55:37.919Z,11.40
2019-02-27T15:58:08.559Z,11.20
2019-02-27T16:00:39.040Z,11.10
2019-02-27T16:03:11.785Z,10.90
2019-02-27T16:05:43.391Z,10.70
2019-02-27T16:08:15.279Z,10.60
2019-02-27T16:10:54.932Z,10.50
2019-02-27T16:13:21.977Z,10.30
2019-02-27T16:15:54.099Z,10.20
2019-02-27T16:18:25.943Z,10.00
2019-02-27T16:21:02.252Z,9.90
2019-02-27T16:23:37.426Z,9.80
2019-02-27T16:26:08.687Z,9.60
2019-02-27T16:28:40.536Z,9.50
2019-02-27T16:31:12.567Z,9.30
2019-02-27T16:33:45.830Z,9.20
2019-02-27T16:36:17.697Z,9.00
2019-02-27T16:38:51.321Z,8.80
2019-02-27T16:41:29.187Z,8.70
2019-02-27T16:44:03.332Z,8.60
2019-02-27T16:46:33.842Z,8.60
2019-02-27T16:49:09.628Z,8.50
2019-02-27T16:51:40.708Z,8.40
2019-02-27T16:54:12.848Z,8.30
2019-02-27T16:56:46.749Z,8.20
2019-02-27T16:59:15.496Z,8.20
2019-02-27T17:01:45.969Z,8.10
2019-02-27T17:04:17.714Z,8.00
2019-02-27T17:06:52.180Z,7.90
2019-02-27T17:09:24.507Z,7.90
2019-02-27T17:11:54.996Z,7.80
2019-02-27T17:14:26.636Z,7.70
2019-02-27T17:16:57.128Z,7.60
2019-02-27T17:19:28.743Z,7.40
2019-02-27T17:21:59.500Z,7.30
2019-02-27T17:24:30.652Z,7.20
2019-02-27T17:27:01.153Z,7.10
2019-02-27T17:29:31.616Z,7.00
2019-02-27T17:32:03.878Z,7.00
2019-02-27T17:34:36.008Z,6.90
2019-02-27T17:37:07.196Z,6.80
2019-02-27T17:39:37.769Z,6.80
2019-02-27T17:42:09.826Z,6.80
2019-02-27T17:44:43.740Z,6.80
2019-02-27T17:47:14.224Z,6.70
2019-02-27T17:49:45.483Z,6.70
2019-02-27T17:52:15.956Z,6.70
2019-02-27T17:54:48.090Z,6.50
2019-02-27T17:57:24.221Z,6.50
2019-02-27T17:59:50.758Z,6.50
2019-02-27T18:02:22.377Z,6.50
2019-02-27T18:04:53.829Z,6.40
2019-02-27T18:07:24.453Z,6.40
2019-02-27T18:09:58.383Z,6.40
2019-02-27T18:12:29.225Z,6.30
2019-02-27T18:14:59.738Z,6.30
2019-02-27T18:17:34.686Z,6.20
2019-02-27T18:20:06.916Z,6.20
2019-02-27T18:22:37.381Z,6.00
2019-02-27T18:25:12.191Z,5.90
2019-02-27T18:27:42.720Z,5.90
2019-02-27T18:30:19.874Z,5.80
2019-02-27T18:32:50.773Z,5.80
2019-02-27T18:35:21.484Z,5.70
2019-02-27T18:37:54.228Z,5.60
2019-02-27T18:40:24.437Z,5.60
2019-02-27T18:42:56.538Z,5.70
2019-02-27T18:45:30.188Z,5.70
2019-02-27T18:48:01.468Z,5.70
2019-02-27T18:50:36.194Z,5.70
2019-02-27T18:53:07.551Z,5.70
2019-02-27T18:55:38.130Z,5.70
2019-02-27T18:58:09.255Z,5.70
2019-02-27T19:00:39.713Z,5.70
2019-02-27T19:03:12.456Z,5.70
2019-02-27T19:05:42.979Z,5.70
2019-02-27T19:08:13.538Z,5.70
2019-02-27T19:10:44.670Z,5.70
2019-02-27T19:13:16.338Z,5.80
2019-02-27T19:15:46.869Z,5.80
2019-02-27T19:18:17.363Z,5.70
2019-02-27T19:20:48.299Z,5.70
2019-02-27T19:23:19.795Z,5.70
2019-02-27T19:25:50.291Z,5.70
2019-02-27T19:28:24.479Z,5.60
2019-02-27T19:30:53.266Z,5.60
2019-02-27T19:33:23.749Z,5.60
2019-02-27T19:35:56.400Z,5.50
2019-02-27T19:38:26.424Z,5.60
2019-02-27T19:40:58.468Z,5.50
2019-02-27T19:43:31.371Z,5.50
2019-02-27T19:46:01.839Z,5.50
2019-02-27T19:48:32.342Z,5.50
2019-02-27T19:51:05.112Z,5.40
2019-02-27T19:53:42.721Z,5.30
2019-02-27T19:56:13.000Z,5.20
2019-02-27T19:58:45.046Z,5.20
2019-02-27T20:01:35.621Z,5.10
2019-02-27T20:04:09.607Z,5.10
2019-02-27T20:06:42.358Z,5.10
2019-02-27T20:09:19.047Z,5.00
2019-02-27T20:11:48.364Z,5.00
2019-02-27T20:14:20.119Z,4.90
2019-02-27T20:16:54.957Z,4.70
2019-02-27T20:19:28.439Z,4.60
2019-02-27T20:21:55.208Z,4.40
2019-02-27T20:24:29.466Z,4.30
2019-02-27T20:26:59.941Z,4.30
2019-02-27T20:29:30.430Z,4.20
2019-02-27T20:32:05.607Z,4.10
2019-02-27T20:34:39.274Z,4.00
2019-02-27T20:37:09.888Z,3.90
2019-02-27T20:39:43.710Z,3.90
2019-02-27T20:42:14.471Z,3.80
2019-02-27T20:44:45.072Z,3.70
2019-02-27T20:47:15.615Z,3.60
2019-02-27T20:49:47.872Z,3.50
2019-02-27T20:52:18.326Z,3.40
2019-02-27T20:54:49.356Z,3.40
2019-02-27T20:57:20.688Z,3.40
2019-02-27T20:59:52.333Z,3.40
2019-02-27T21:02:22.828Z,3.40
2019-02-27T21:04:53.297Z,3.30
2019-02-27T21:07:26.216Z,3.20
2019-02-27T21:09:56.626Z,3.20
2019-02-27T21:12:27.101Z,3.10
2019-02-27T21:14:57.922Z,3.10
2019-02-27T21:17:29.033Z,3.10
2019-02-27T21:20:01.019Z,3.10
2019-02-27T21:22:32.398Z,3.10
2019-02-27T21:25:05.812Z,3.10
2019-02-27T21:27:36.268Z,3.10
2019-02-27T21:30:19.374Z,3.00
2019-02-27T21:32:49.973Z,3.00
2019-02-27T21:35:20.663Z,2.90
2019-02-27T21:37:54.390Z,2.90
2019-02-27T21:40:25.808Z,2.90
2019-02-27T21:42:56.270Z,2.80
2019-02-27T21:45:26.831Z,2.80
2019-02-27T21:47:57.366Z,2.70
2019-02-27T21:50:28.928Z,2.70
2019-02-27T21:52:59.390Z,2.60
2019-02-27T21:55:32.856Z,2.60
2019-02-27T21:58:04.293Z,2.50
2019-02-27T22:00:35.513Z,2.50
2019-02-27T22:03:06.071Z,2.40
2019-02-27T22:05:42.682Z,2.40
2019-02-27T22:08:08.743Z,2.40
2019-02-27T22:10:39.277Z,2.30
2019-02-27T22:13:10.818Z,2.30
2019-02-27T22:15:41.524Z,2.30
2019-02-27T22:18:12.177Z,2.20
2019-02-27T22:20:42.710Z,2.20
2019-02-27T22:23:13.584Z,2.20
2019-02-27T22:25:45.680Z,2.20
2019-02-27T22:28:17.304Z,2.20
2019-02-27T22:30:51.509Z,2.10
2019-02-27T22:33:22.984Z,2.20
2019-02-27T22:35:55.288Z,2.20
2019-02-27T22:38:26.772Z,2.10
2019-02-27T22:40:58.871Z,2.10
2019-02-27T22:43:30.092Z,2.10
2019-02-27T22:46:00.588Z,2.20
2019-02-27T22:48:32.166Z,2.10
2019-02-27T22:51:03.173Z,2.20
2019-02-27T22:53:33.631Z,2.10
2019-02-27T22:56:04.148Z,2.00
2019-02-27T22:58:34.606Z,2.00
2019-02-27T23:01:11.030Z,2.00
2019-02-27T23:03:50.839Z,2.00
2019-02-27T23:06:23.003Z,2.10
2019-02-27T23:08:54.450Z,2.10
2019-02-27T23:11:25.591Z,2.00
2019-02-27T23:13:56.710Z,2.00
2019-02-27T23:16:29.777Z,2.10
2019-02-27T23:18:59.636Z,2.00
2019-02-27T23:21:31.703Z,2.00
2019-02-27T23:24:02.167Z,1.90
2019-02-27T23:26:33.952Z,1.80
2019-02-27T23:29:06.471Z,1.70
2019-02-27T23:31:37.122Z,1.70
2019-02-27T23:34:08.643Z,1.70
2019-02-27T23:36:39.279Z,1.60
2019-02-27T23:39:10.309Z,1.50
2019-02-27T23:41:40.824Z,1.50
2019-02-27T23:44:12.188Z,1.40
2019-02-27T23:46:49.583Z,1.40
2019-02-27T23:49:29.211Z,1.40
2019-02-27T23:52:02.486Z,1.30
2019-02-27T23:54:35.898Z,1.30
2019-02-27T23:57:05.339Z,1.30
2019-02-27T23:59:37.000Z,1.30
